sensor_id;sensor_type;location;lat;lon;timestamp;temperature;humidity
27797;DHT22;15177;50.844;4.412;2022-10-14T00:02:06;15.60;99.90
27797;DHT22;15177;50.844;4.412;2022-10-14T00:04:31;15.60;99.90
27797;DHT22;15177;50.844;4.412;2022-10-14T00:06:57;15.60;99.90
27797;DHT22;15177;50.844;4.412;2022-10-14T00:09:23;15.70;99.90
27797;DHT22;15177;50.844;4.412;2022-10-14T00:11:48;15.70;99.90
27797;DHT22;15177;50.844;4.412;2022-10-14T00:14:16;15.70;99.90
27797;DHT22;15177;50.844;4.412;2022-10-14T00:16:44;15.80;99.90
27797;DHT22;15177;50.844;4.412;2022-10-14T00:19:11;15.90;99.90
27797;DHT22;15177;50.844;4.412;2022-10-14T00:21:40;16.10;99.90
27797;DHT22;15177;50.844;4.412;2022-10-14T00:24:06;15.90;99.90
27797;DHT22;15177;50.844;4.412;2022-10-14T00:26:35;15.90;99.90
27797;DHT22;15177;50.844;4.412;2022-10-14T00:29:05;16.00;99.90
27797;DHT22;15177;50.844;4.412;2022-10-14T00:31:31;15.90;99.90
27797;DHT22;15177;50.844;4.412;2022-10-14T00:33:57;15.90;99.90
27797;DHT22;15177;50.844;4.412;2022-10-14T00:36:23;15.90;99.90
27797;DHT22;15177;50.844;4.412;2022-10-14T00:38:51;15.60;99.90
27797;DHT22;15177;50.844;4.412;2022-10-14T00:41:26;15.60;99.90
27797;DHT22;15177;50.844;4.412;2022-10-14T00:46:21;15.50;99.90
27797;DHT22;15177;50.844;4.412;2022-10-14T00:48:47;15.40;99.90
27797;DHT22;15177;50.844;4.412;2022-10-14T00:51:15;15.60;99.90
27797;DHT22;15177;50.844;4.412;2022-10-14T00:53:42;15.50;99.90
27797;DHT22;15177;50.844;4.412;2022-10-14T00:56:10;15.60;99.90
27797;DHT22;15177;50.844;4.412;2022-10-14T00:58:36;15.70;99.90
27797;DHT22;15177;50.844;4.412;2022-10-14T01:01:03;15.80;99.90
27797;DHT22;15177;50.844;4.412;2022-10-14T01:03:32;15.80;99.90
27797;DHT22;15177;50.844;4.412;2022-10-14T01:14:36;15.90;99.90
27797;DHT22;15177;50.844;4.412;2022-10-14T01:17:17;15.80;99.90
27797;DHT22;15177;50.844;4.412;2022-10-14T01:22:36;16.00;99.90
27797;DHT22;15177;50.844;4.412;2022-10-14T01:31:04;15.90;99.90
27797;DHT22;15177;50.844;4.412;2022-10-14T01:33:40;15.90;99.90
27797;DHT22;15177;50.844;4.412;2022-10-14T01:36:17;15.90;99.90
27797;DHT22;15177;50.844;4.412;2022-10-14T01:39:13;15.80;99.90
27797;DHT22;15177;50.844;4.412;2022-10-14T01:41:54;15.70;99.90
27797;DHT22;15177;50.844;4.412;2022-10-14T01:44:21;15.60;99.90
27797;DHT22;15177;50.844;4.412;2022-10-14T01:46:51;15.70;99.90
27797;DHT22;15177;50.844;4.412;2022-10-14T01:49:27;15.90;99.90
27797;DHT22;15177;50.844;4.412;2022-10-14T01:51:57;15.90;99.90
27797;DHT22;15177;50.844;4.412;2022-10-14T01:54:32;16.00;99.90
27797;DHT22;15177;50.844;4.412;2022-10-14T01:57:02;16.00;99.90
27797;DHT22;15177;50.844;4.412;2022-10-14T01:59:30;15.90;99.90
27797;DHT22;15177;50.844;4.412;2022-10-14T02:01:57;15.90;99.90
27797;DHT22;15177;50.844;4.412;2022-10-14T02:04:23;15.80;99.90
27797;DHT22;15177;50.844;4.412;2022-10-14T02:07:11;15.90;99.90
27797;DHT22;15177;50.844;4.412;2022-10-14T02:12:38;15.90;99.90
27797;DHT22;15177;50.844;4.412;2022-10-14T02:15:20;15.90;99.90
27797;DHT22;15177;50.844;4.412;2022-10-14T02:20:51;15.90;99.90
27797;DHT22;15177;50.844;4.412;2022-10-14T02:23:20;16.00;99.90
27797;DHT22;15177;50.844;4.412;2022-10-14T02:25:48;15.80;99.90
27797;DHT22;15177;50.844;4.412;2022-10-14T02:28:20;15.80;99.90
27797;DHT22;15177;50.844;4.412;2022-10-14T02:30:54;15.80;99.90
27797;DHT22;15177;50.844;4.412;2022-10-14T02:33:25;15.70;99.90
27797;DHT22;15177;50.844;4.412;2022-10-14T02:35:51;15.70;99.90
27797;DHT22;15177;50.844;4.412;2022-10-14T02:38:19;15.60;99.90
27797;DHT22;15177;50.844;4.412;2022-10-14T02:40:47;15.50;99.90
27797;DHT22;15177;50.844;4.412;2022-10-14T02:43:14;15.40;99.90
27797;DHT22;15177;50.844;4.412;2022-10-14T02:45:42;15.60;99.90
27797;DHT22;15177;50.844;4.412;2022-10-14T02:48:09;15.50;99.90
27797;DHT22;15177;50.844;4.412;2022-10-14T02:50:36;15.50;99.90
27797;DHT22;15177;50.844;4.412;2022-10-14T02:53:02;15.40;99.90
27797;DHT22;15177;50.844;4.412;2022-10-14T02:55:27;15.50;99.90
27797;DHT22;15177;50.844;4.412;2022-10-14T02:57:53;15.50;99.90
27797;DHT22;15177;50.844;4.412;2022-10-14T03:00:19;15.40;99.90
27797;DHT22;15177;50.844;4.412;2022-10-14T03:02:45;15.40;99.90
27797;DHT22;15177;50.844;4.412;2022-10-14T03:05:12;15.50;99.90
27797;DHT22;15177;50.844;4.412;2022-10-14T03:07:37;15.50;99.90
27797;DHT22;15177;50.844;4.412;2022-10-14T03:10:03;15.50;99.90
27797;DHT22;15177;50.844;4.412;2022-10-14T03:12:29;15.50;99.90
27797;DHT22;15177;50.844;4.412;2022-10-14T03:14:55;15.70;99.90
27797;DHT22;15177;50.844;4.412;2022-10-14T03:17:21;15.80;99.90
27797;DHT22;15177;50.844;4.412;2022-10-14T03:19:47;15.70;99.90
27797;DHT22;15177;50.844;4.412;2022-10-14T03:22:12;15.60;99.90
27797;DHT22;15177;50.844;4.412;2022-10-14T03:24:38;15.60;99.90
27797;DHT22;15177;50.844;4.412;2022-10-14T03:27:03;15.70;99.90
27797;DHT22;15177;50.844;4.412;2022-10-14T03:29:29;15.50;99.90
27797;DHT22;15177;50.844;4.412;2022-10-14T03:31:55;15.40;99.90
27797;DHT22;15177;50.844;4.412;2022-10-14T03:34:21;15.30;99.90
27797;DHT22;15177;50.844;4.412;2022-10-14T03:36:46;15.30;99.90
27797;DHT22;15177;50.844;4.412;2022-10-14T03:39:12;15.30;99.90
27797;DHT22;15177;50.844;4.412;2022-10-14T03:41:38;15.50;99.90
27797;DHT22;15177;50.844;4.412;2022-10-14T03:44:04;15.60;99.90
27797;DHT22;15177;50.844;4.412;2022-10-14T03:46:29;15.60;99.90
27797;DHT22;15177;50.844;4.412;2022-10-14T03:48:55;15.60;99.90
27797;DHT22;15177;50.844;4.412;2022-10-14T03:51:21;15.70;99.90
27797;DHT22;15177;50.844;4.412;2022-10-14T03:53:47;15.70;99.90
27797;DHT22;15177;50.844;4.412;2022-10-14T03:56:12;15.80;99.90
27797;DHT22;15177;50.844;4.412;2022-10-14T03:58:39;15.80;99.90
27797;DHT22;15177;50.844;4.412;2022-10-14T04:01:05;15.60;99.90
27797;DHT22;15177;50.844;4.412;2022-10-14T04:03:31;15.70;99.90
27797;DHT22;15177;50.844;4.412;2022-10-14T04:05:56;15.70;99.90
27797;DHT22;15177;50.844;4.412;2022-10-14T04:08:22;15.80;99.90
27797;DHT22;15177;50.844;4.412;2022-10-14T04:10:54;15.50;99.90
27797;DHT22;15177;50.844;4.412;2022-10-14T04:13:21;15.60;99.90
27797;DHT22;15177;50.844;4.412;2022-10-14T04:15:47;15.30;99.90
27797;DHT22;15177;50.844;4.412;2022-10-14T04:18:14;15.30;99.90
27797;DHT22;15177;50.844;4.412;2022-10-14T04:20:40;15.40;99.90
27797;DHT22;15177;50.844;4.412;2022-10-14T04:23:06;15.30;99.90
27797;DHT22;15177;50.844;4.412;2022-10-14T04:25:31;15.40;99.90
27797;DHT22;15177;50.844;4.412;2022-10-14T04:27:57;15.20;99.90
27797;DHT22;15177;50.844;4.412;2022-10-14T04:30:23;15.40;99.90
27797;DHT22;15177;50.844;4.412;2022-10-14T04:32:48;15.50;99.90
27797;DHT22;15177;50.844;4.412;2022-10-14T04:35:14;15.60;99.90
27797;DHT22;15177;50.844;4.412;2022-10-14T04:37:40;15.70;99.90
27797;DHT22;15177;50.844;4.412;2022-10-14T04:40:05;15.80;99.90
27797;DHT22;15177;50.844;4.412;2022-10-14T04:42:32;15.60;99.90
27797;DHT22;15177;50.844;4.412;2022-10-14T04:44:58;15.70;99.90
27797;DHT22;15177;50.844;4.412;2022-10-14T04:47:23;15.70;99.90
27797;DHT22;15177;50.844;4.412;2022-10-14T04:49:49;15.70;99.90
27797;DHT22;15177;50.844;4.412;2022-10-14T04:52:15;15.70;99.90
27797;DHT22;15177;50.844;4.412;2022-10-14T04:54:40;15.50;99.90
27797;DHT22;15177;50.844;4.412;2022-10-14T04:57:06;15.60;99.90
27797;DHT22;15177;50.844;4.412;2022-10-14T04:59:32;15.80;99.90
27797;DHT22;15177;50.844;4.412;2022-10-14T05:01:59;15.90;99.90
27797;DHT22;15177;50.844;4.412;2022-10-14T05:04:25;15.70;99.90
27797;DHT22;15177;50.844;4.412;2022-10-14T05:06:50;15.70;99.90
27797;DHT22;15177;50.844;4.412;2022-10-14T05:09:16;15.70;99.90
27797;DHT22;15177;50.844;4.412;2022-10-14T05:11:41;15.50;99.90
27797;DHT22;15177;50.844;4.412;2022-10-14T05:14:07;15.50;99.90
27797;DHT22;15177;50.844;4.412;2022-10-14T05:16:33;15.50;99.90
27797;DHT22;15177;50.844;4.412;2022-10-14T05:18:59;15.50;99.90
27797;DHT22;15177;50.844;4.412;2022-10-14T05:21:25;15.60;99.90
27797;DHT22;15177;50.844;4.412;2022-10-14T05:23:50;15.60;99.90
27797;DHT22;15177;50.844;4.412;2022-10-14T05:26:16;15.60;99.90
27797;DHT22;15177;50.844;4.412;2022-10-14T05:28:42;15.60;99.90
27797;DHT22;15177;50.844;4.412;2022-10-14T05:31:07;15.50;99.90
27797;DHT22;15177;50.844;4.412;2022-10-14T05:33:33;15.40;99.90
27797;DHT22;15177;50.844;4.412;2022-10-14T05:36:00;15.40;99.90
27797;DHT22;15177;50.844;4.412;2022-10-14T05:38:26;15.40;99.90
27797;DHT22;15177;50.844;4.412;2022-10-14T05:40:56;15.40;99.90
27797;DHT22;15177;50.844;4.412;2022-10-14T05:43:23;15.30;99.90
27797;DHT22;15177;50.844;4.412;2022-10-14T05:45:49;15.30;99.90
27797;DHT22;15177;50.844;4.412;2022-10-14T05:48:16;15.10;99.90
27797;DHT22;15177;50.844;4.412;2022-10-14T05:50:42;14.90;99.90
27797;DHT22;15177;50.844;4.412;2022-10-14T05:53:09;14.90;99.90
27797;DHT22;15177;50.844;4.412;2022-10-14T05:55:36;15.20;99.90
27797;DHT22;15177;50.844;4.412;2022-10-14T05:58:02;15.30;99.90
27797;DHT22;15177;50.844;4.412;2022-10-14T06:00:27;15.30;99.90
27797;DHT22;15177;50.844;4.412;2022-10-14T06:02:53;15.20;99.90
27797;DHT22;15177;50.844;4.412;2022-10-14T06:05:21;15.30;99.90
27797;DHT22;15177;50.844;4.412;2022-10-14T06:07:46;15.10;99.90
27797;DHT22;15177;50.844;4.412;2022-10-14T06:10:12;15.20;99.90
27797;DHT22;15177;50.844;4.412;2022-10-14T06:12:38;15.10;99.90
27797;DHT22;15177;50.844;4.412;2022-10-14T06:15:04;15.10;99.90
27797;DHT22;15177;50.844;4.412;2022-10-14T06:17:29;15.30;99.90
27797;DHT22;15177;50.844;4.412;2022-10-14T06:19:55;15.30;99.90
27797;DHT22;15177;50.844;4.412;2022-10-14T06:22:21;15.40;99.90
27797;DHT22;15177;50.844;4.412;2022-10-14T06:24:47;15.20;99.90
27797;DHT22;15177;50.844;4.412;2022-10-14T06:27:12;15.10;99.90
27797;DHT22;15177;50.844;4.412;2022-10-14T06:29:39;15.40;99.90
27797;DHT22;15177;50.844;4.412;2022-10-14T06:32:07;15.40;99.90
27797;DHT22;15177;50.844;4.412;2022-10-14T06:34:34;15.20;99.90
27797;DHT22;15177;50.844;4.412;2022-10-14T06:37:00;15.20;99.90
27797;DHT22;15177;50.844;4.412;2022-10-14T06:39:26;15.10;99.90
27797;DHT22;15177;50.844;4.412;2022-10-14T06:41:52;15.10;99.90
27797;DHT22;15177;50.844;4.412;2022-10-14T06:44:19;15.10;99.90
27797;DHT22;15177;50.844;4.412;2022-10-14T06:46:45;15.10;99.90
27797;DHT22;15177;50.844;4.412;2022-10-14T06:49:11;15.00;99.90
27797;DHT22;15177;50.844;4.412;2022-10-14T06:51:36;15.20;99.90
27797;DHT22;15177;50.844;4.412;2022-10-14T06:54:05;15.20;99.90
27797;DHT22;15177;50.844;4.412;2022-10-14T06:56:32;15.30;99.90
27797;DHT22;15177;50.844;4.412;2022-10-14T06:58:59;15.50;99.90
27797;DHT22;15177;50.844;4.412;2022-10-14T07:01:24;15.40;99.90
27797;DHT22;15177;50.844;4.412;2022-10-14T07:03:50;15.40;99.90
27797;DHT22;15177;50.844;4.412;2022-10-14T07:06:16;15.40;99.90
27797;DHT22;15177;50.844;4.412;2022-10-14T07:08:41;15.40;99.90
27797;DHT22;15177;50.844;4.412;2022-10-14T07:11:07;15.50;99.90
27797;DHT22;15177;50.844;4.412;2022-10-14T07:13:34;15.40;99.90
27797;DHT22;15177;50.844;4.412;2022-10-14T07:15:59;15.40;99.90
27797;DHT22;15177;50.844;4.412;2022-10-14T07:18:25;15.30;99.90
27797;DHT22;15177;50.844;4.412;2022-10-14T07:20:51;15.20;99.90
27797;DHT22;15177;50.844;4.412;2022-10-14T07:23:17;15.30;99.90
27797;DHT22;15177;50.844;4.412;2022-10-14T07:25:43;15.30;99.90
27797;DHT22;15177;50.844;4.412;2022-10-14T07:28:09;15.50;99.90
27797;DHT22;15177;50.844;4.412;2022-10-14T07:30:37;15.60;99.90
27797;DHT22;15177;50.844;4.412;2022-10-14T07:33:03;15.40;99.90
27797;DHT22;15177;50.844;4.412;2022-10-14T07:35:28;15.60;99.90
27797;DHT22;15177;50.844;4.412;2022-10-14T07:37:54;15.90;99.90
27797;DHT22;15177;50.844;4.412;2022-10-14T07:40:22;16.00;99.90
27797;DHT22;15177;50.844;4.412;2022-10-14T07:42:47;16.20;99.90
27797;DHT22;15177;50.844;4.412;2022-10-14T07:45:13;16.00;99.90
27797;DHT22;15177;50.844;4.412;2022-10-14T07:47:46;16.10;99.90
27797;DHT22;15177;50.844;4.412;2022-10-14T07:50:12;15.80;99.90
27797;DHT22;15177;50.844;4.412;2022-10-14T07:52:38;15.80;99.90
27797;DHT22;15177;50.844;4.412;2022-10-14T07:55:04;15.80;99.90
27797;DHT22;15177;50.844;4.412;2022-10-14T07:57:30;15.80;99.90
27797;DHT22;15177;50.844;4.412;2022-10-14T07:59:56;15.90;99.90
27797;DHT22;15177;50.844;4.412;2022-10-14T08:02:21;16.10;99.90
27797;DHT22;15177;50.844;4.412;2022-10-14T08:04:52;16.20;99.90
27797;DHT22;15177;50.844;4.412;2022-10-14T08:07:19;16.10;99.90
27797;DHT22;15177;50.844;4.412;2022-10-14T08:09:45;16.20;99.90
27797;DHT22;15177;50.844;4.412;2022-10-14T08:12:11;15.90;99.90
27797;DHT22;15177;50.844;4.412;2022-10-14T08:14:38;16.00;99.90
27797;DHT22;15177;50.844;4.412;2022-10-14T08:17:03;16.10;99.90
27797;DHT22;15177;50.844;4.412;2022-10-14T08:19:29;16.20;99.90
27797;DHT22;15177;50.844;4.412;2022-10-14T08:21:55;16.20;99.90
27797;DHT22;15177;50.844;4.412;2022-10-14T08:24:21;16.40;99.90
27797;DHT22;15177;50.844;4.412;2022-10-14T08:26:55;16.30;99.90
27797;DHT22;15177;50.844;4.412;2022-10-14T08:29:22;16.50;99.90
27797;DHT22;15177;50.844;4.412;2022-10-14T08:31:49;16.60;99.90
27797;DHT22;15177;50.844;4.412;2022-10-14T08:34:15;16.60;99.90
27797;DHT22;15177;50.844;4.412;2022-10-14T08:36:46;16.30;99.90
27797;DHT22;15177;50.844;4.412;2022-10-14T08:39:12;16.30;99.90
27797;DHT22;15177;50.844;4.412;2022-10-14T08:42:01;16.50;99.90
27797;DHT22;15177;50.844;4.412;2022-10-14T08:44:44;16.60;99.90
27797;DHT22;15177;50.844;4.412;2022-10-14T08:47:14;16.60;99.90
27797;DHT22;15177;50.844;4.412;2022-10-14T08:52:47;16.80;99.90
27797;DHT22;15177;50.844;4.412;2022-10-14T09:00:48;16.90;99.90
27797;DHT22;15177;50.844;4.412;2022-10-14T09:03:19;16.90;99.90
27797;DHT22;15177;50.844;4.412;2022-10-14T09:05:56;17.00;99.90
27797;DHT22;15177;50.844;4.412;2022-10-14T09:08:27;16.90;99.90
27797;DHT22;15177;50.844;4.412;2022-10-14T09:10:56;17.10;99.90
27797;DHT22;15177;50.844;4.412;2022-10-14T09:13:30;17.20;99.90
27797;DHT22;15177;50.844;4.412;2022-10-14T09:16:24;17.30;99.90
27797;DHT22;15177;50.844;4.412;2022-10-14T09:18:56;17.20;99.90
27797;DHT22;15177;50.844;4.412;2022-10-14T09:24:19;17.40;99.90
27797;DHT22;15177;50.844;4.412;2022-10-14T09:26:59;17.40;99.90
27797;DHT22;15177;50.844;4.412;2022-10-14T09:32:30;17.40;99.90
27797;DHT22;15177;50.844;4.412;2022-10-14T09:34:58;17.50;99.90
27797;DHT22;15177;50.844;4.412;2022-10-14T09:37:31;17.50;99.90
27797;DHT22;15177;50.844;4.412;2022-10-14T09:40:29;17.60;99.90
27797;DHT22;15177;50.844;4.412;2022-10-14T09:51:20;17.80;99.90
27797;DHT22;15177;50.844;4.412;2022-10-14T09:54:04;17.90;99.90
27797;DHT22;15177;50.844;4.412;2022-10-14T09:56:32;18.00;99.90
27797;DHT22;15177;50.844;4.412;2022-10-14T09:59:00;18.10;99.90
27797;DHT22;15177;50.844;4.412;2022-10-14T10:01:28;18.20;99.90
27797;DHT22;15177;50.844;4.412;2022-10-14T10:03:56;18.10;99.90
27797;DHT22;15177;50.844;4.412;2022-10-14T10:06:52;18.10;99.90
27797;DHT22;15177;50.844;4.412;2022-10-14T10:09:26;18.00;99.90
27797;DHT22;15177;50.844;4.412;2022-10-14T10:11:53;18.00;99.90
27797;DHT22;15177;50.844;4.412;2022-10-14T10:14:32;18.00;99.90
27797;DHT22;15177;50.844;4.412;2022-10-14T10:19:48;18.00;99.90
27797;DHT22;15177;50.844;4.412;2022-10-14T10:22:25;18.00;99.90
27797;DHT22;15177;50.844;4.412;2022-10-14T10:29:52;17.70;99.90
27797;DHT22;15177;50.844;4.412;2022-10-14T10:32:29;17.70;99.90
27797;DHT22;15177;50.844;4.412;2022-10-14T10:37:44;17.60;99.90
27797;DHT22;15177;50.844;4.412;2022-10-14T10:40:26;17.50;99.90
27797;DHT22;15177;50.844;4.412;2022-10-14T10:43:09;17.50;99.90
27797;DHT22;15177;50.844;4.412;2022-10-14T10:51:06;17.80;99.90
27797;DHT22;15177;50.844;4.412;2022-10-14T11:02:23;17.80;99.90
27797;DHT22;15177;50.844;4.412;2022-10-14T11:10:14;18.00;99.90
27797;DHT22;15177;50.844;4.412;2022-10-14T11:13:22;18.00;99.90
27797;DHT22;15177;50.844;4.412;2022-10-14T11:16:30;18.00;99.90
27797;DHT22;15177;50.844;4.412;2022-10-14T11:27:29;18.10;99.90
27797;DHT22;15177;50.844;4.412;2022-10-14T11:38:14;18.00;99.90
27797;DHT22;15177;50.844;4.412;2022-10-14T11:46:09;18.40;99.90
27797;DHT22;15177;50.844;4.412;2022-10-14T11:48:49;18.60;99.90
27797;DHT22;15177;50.844;4.412;2022-10-14T11:51:18;18.70;99.90
27797;DHT22;15177;50.844;4.412;2022-10-14T11:54:07;18.80;99.90
27797;DHT22;15177;50.844;4.412;2022-10-14T11:59:20;19.30;99.90
27797;DHT22;15177;50.844;4.412;2022-10-14T12:01:56;19.50;99.90
27797;DHT22;15177;50.844;4.412;2022-10-14T12:04:34;19.60;99.90
27797;DHT22;15177;50.844;4.412;2022-10-14T12:07:46;19.60;99.90
27797;DHT22;15177;50.844;4.412;2022-10-14T12:09:56;19.60;99.90
27797;DHT22;15177;50.844;4.412;2022-10-14T12:12:26;19.50;99.90
27797;DHT22;15177;50.844;4.412;2022-10-14T12:14:59;19.30;99.90
27797;DHT22;15177;50.844;4.412;2022-10-14T12:22:57;19.30;99.90
27797;DHT22;15177;50.844;4.412;2022-10-14T12:25:27;19.30;99.90
27797;DHT22;15177;50.844;4.412;2022-10-14T12:27:54;19.50;99.90
27797;DHT22;15177;50.844;4.412;2022-10-14T12:30:37;19.60;99.90
27797;DHT22;15177;50.844;4.412;2022-10-14T12:33:08;19.50;99.90
27797;DHT22;15177;50.844;4.412;2022-10-14T12:38:13;19.50;99.90
27797;DHT22;15177;50.844;4.412;2022-10-14T12:40:39;19.40;99.90
27797;DHT22;15177;50.844;4.412;2022-10-14T12:43:22;19.30;99.90
27797;DHT22;15177;50.844;4.412;2022-10-14T12:46:09;19.30;99.90
27797;DHT22;15177;50.844;4.412;2022-10-14T12:48:43;19.30;99.90
27797;DHT22;15177;50.844;4.412;2022-10-14T12:51:20;19.30;99.90
27797;DHT22;15177;50.844;4.412;2022-10-14T12:54:11;19.50;99.90
27797;DHT22;15177;50.844;4.412;2022-10-14T12:56:43;19.70;99.90
27797;DHT22;15177;50.844;4.412;2022-10-14T12:59:27;19.70;99.90
27797;DHT22;15177;50.844;4.412;2022-10-14T13:02:12;19.80;99.90
27797;DHT22;15177;50.844;4.412;2022-10-14T13:04:47;19.70;99.90
27797;DHT22;15177;50.844;4.412;2022-10-14T13:07:28;19.60;99.90
27797;DHT22;15177;50.844;4.412;2022-10-14T13:09:59;19.70;99.90
27797;DHT22;15177;50.844;4.412;2022-10-14T13:14:57;19.90;99.90
27797;DHT22;15177;50.844;4.412;2022-10-14T13:17:43;19.90;99.90
27797;DHT22;15177;50.844;4.412;2022-10-14T13:25:48;20.10;99.90
27797;DHT22;15177;50.844;4.412;2022-10-14T13:31:02;19.80;99.90
27797;DHT22;15177;50.844;4.412;2022-10-14T13:38:52;19.70;99.90
27797;DHT22;15177;50.844;4.412;2022-10-14T13:41:20;19.80;99.90
27797;DHT22;15177;50.844;4.412;2022-10-14T13:43:52;19.80;99.90
27797;DHT22;15177;50.844;4.412;2022-10-14T13:46:32;19.80;99.90
27797;DHT22;15177;50.844;4.412;2022-10-14T13:49:00;19.80;99.90
27797;DHT22;15177;50.844;4.412;2022-10-14T13:51:55;19.80;99.90
27797;DHT22;15177;50.844;4.412;2022-10-14T13:54:26;19.70;99.90
27797;DHT22;15177;50.844;4.412;2022-10-14T13:57:07;19.80;99.90
27797;DHT22;15177;50.844;4.412;2022-10-14T13:59:37;19.90;99.90
27797;DHT22;15177;50.844;4.412;2022-10-14T14:02:18;20.00;99.90
27797;DHT22;15177;50.844;4.412;2022-10-14T14:04:51;19.80;99.90
27797;DHT22;15177;50.844;4.412;2022-10-14T14:07:20;19.70;99.90
27797;DHT22;15177;50.844;4.412;2022-10-14T14:09:53;19.60;99.90
27797;DHT22;15177;50.844;4.412;2022-10-14T14:12:20;19.60;99.90
27797;DHT22;15177;50.844;4.412;2022-10-14T14:14:47;19.50;99.90
27797;DHT22;15177;50.844;4.412;2022-10-14T14:17:17;19.40;99.90
27797;DHT22;15177;50.844;4.412;2022-10-14T14:19:45;19.20;99.90
27797;DHT22;15177;50.844;4.412;2022-10-14T14:22:21;19.20;99.90
27797;DHT22;15177;50.844;4.412;2022-10-14T14:27:47;19.10;99.90
27797;DHT22;15177;50.844;4.412;2022-10-14T14:30:47;19.20;99.90
27797;DHT22;15177;50.844;4.412;2022-10-14T14:33:16;19.10;99.90
27797;DHT22;15177;50.844;4.412;2022-10-14T14:35:53;19.10;99.90
27797;DHT22;15177;50.844;4.412;2022-10-14T14:38:29;19.00;99.90
27797;DHT22;15177;50.844;4.412;2022-10-14T14:41:19;18.90;99.90
27797;DHT22;15177;50.844;4.412;2022-10-14T14:43:50;18.90;99.90
27797;DHT22;15177;50.844;4.412;2022-10-14T14:46:37;18.90;99.90
27797;DHT22;15177;50.844;4.412;2022-10-14T14:49:05;18.80;99.90
27797;DHT22;15177;50.844;4.412;2022-10-14T14:51:37;18.80;99.90
27797;DHT22;15177;50.844;4.412;2022-10-14T14:54:04;18.70;99.90
27797;DHT22;15177;50.844;4.412;2022-10-14T14:56:37;18.60;99.90
27797;DHT22;15177;50.844;4.412;2022-10-14T14:59:33;18.60;99.90
27797;DHT22;15177;50.844;4.412;2022-10-14T15:02:02;18.50;99.90
27797;DHT22;15177;50.844;4.412;2022-10-14T15:04:31;18.60;99.90
27797;DHT22;15177;50.844;4.412;2022-10-14T15:07:05;18.60;99.90
27797;DHT22;15177;50.844;4.412;2022-10-14T15:12:03;18.60;99.90
27797;DHT22;15177;50.844;4.412;2022-10-14T15:17:24;18.60;99.90
27797;DHT22;15177;50.844;4.412;2022-10-14T15:19:51;18.60;99.90
27797;DHT22;15177;50.844;4.412;2022-10-14T15:32:55;18.40;99.90
27797;DHT22;15177;50.844;4.412;2022-10-14T15:35:23;18.30;99.90
27797;DHT22;15177;50.844;4.412;2022-10-14T15:37:49;18.30;99.90
27797;DHT22;15177;50.844;4.412;2022-10-14T15:40:18;18.50;99.90
27797;DHT22;15177;50.844;4.412;2022-10-14T15:42:45;18.60;99.90
27797;DHT22;15177;50.844;4.412;2022-10-14T15:45:11;18.40;99.90
27797;DHT22;15177;50.844;4.412;2022-10-14T15:47:37;18.40;99.90
27797;DHT22;15177;50.844;4.412;2022-10-14T15:50:17;18.30;99.90
27797;DHT22;15177;50.844;4.412;2022-10-14T15:52:43;18.30;99.90
27797;DHT22;15177;50.844;4.412;2022-10-14T15:55:19;18.30;99.90
27797;DHT22;15177;50.844;4.412;2022-10-14T15:57:46;18.30;99.90
27797;DHT22;15177;50.844;4.412;2022-10-14T16:00:15;18.40;99.90
27797;DHT22;15177;50.844;4.412;2022-10-14T16:02:41;18.30;99.90
27797;DHT22;15177;50.844;4.412;2022-10-14T16:05:08;18.10;99.90
27797;DHT22;15177;50.844;4.412;2022-10-14T16:07:35;18.10;99.90
27797;DHT22;15177;50.844;4.412;2022-10-14T16:10:00;18.00;99.90
27797;DHT22;15177;50.844;4.412;2022-10-14T16:12:26;18.10;99.90
27797;DHT22;15177;50.844;4.412;2022-10-14T16:14:52;18.10;99.90
27797;DHT22;15177;50.844;4.412;2022-10-14T16:17:17;18.10;99.90
27797;DHT22;15177;50.844;4.412;2022-10-14T16:19:43;18.20;99.90
27797;DHT22;15177;50.844;4.412;2022-10-14T16:22:09;18.10;99.90
27797;DHT22;15177;50.844;4.412;2022-10-14T16:24:35;18.10;99.90
27797;DHT22;15177;50.844;4.412;2022-10-14T16:27:01;18.00;99.90
27797;DHT22;15177;50.844;4.412;2022-10-14T16:29:26;18.00;99.90
27797;DHT22;15177;50.844;4.412;2022-10-14T16:31:52;18.00;99.90
27797;DHT22;15177;50.844;4.412;2022-10-14T16:34:20;17.90;99.90
27797;DHT22;15177;50.844;4.412;2022-10-14T16:36:47;17.70;99.90
27797;DHT22;15177;50.844;4.412;2022-10-14T16:39:17;17.60;99.90
27797;DHT22;15177;50.844;4.412;2022-10-14T16:41:43;17.60;99.90
27797;DHT22;15177;50.844;4.412;2022-10-14T16:44:09;17.50;99.90
27797;DHT22;15177;50.844;4.412;2022-10-14T16:46:50;17.40;99.90
27797;DHT22;15177;50.844;4.412;2022-10-14T16:49:34;17.40;99.90
27797;DHT22;15177;50.844;4.412;2022-10-14T16:52:00;17.30;99.90
27797;DHT22;15177;50.844;4.412;2022-10-14T16:54:25;17.20;99.90
27797;DHT22;15177;50.844;4.412;2022-10-14T16:56:51;17.30;99.90
27797;DHT22;15177;50.844;4.412;2022-10-14T16:59:18;17.40;99.90
27797;DHT22;15177;50.844;4.412;2022-10-14T17:01:44;17.30;99.90
27797;DHT22;15177;50.844;4.412;2022-10-14T17:04:10;17.10;99.90
27797;DHT22;15177;50.844;4.412;2022-10-14T17:06:36;17.10;99.90
27797;DHT22;15177;50.844;4.412;2022-10-14T17:09:02;17.00;99.90
27797;DHT22;15177;50.844;4.412;2022-10-14T17:11:28;16.90;99.90
27797;DHT22;15177;50.844;4.412;2022-10-14T17:13:56;16.80;99.90
27797;DHT22;15177;50.844;4.412;2022-10-14T17:16:23;16.70;99.90
27797;DHT22;15177;50.844;4.412;2022-10-14T17:18:53;16.60;99.90
27797;DHT22;15177;50.844;4.412;2022-10-14T17:21:19;16.50;99.90
27797;DHT22;15177;50.844;4.412;2022-10-14T17:23:45;16.50;99.90
27797;DHT22;15177;50.844;4.412;2022-10-14T17:26:13;16.40;99.90
27797;DHT22;15177;50.844;4.412;2022-10-14T17:28:39;16.30;99.90
27797;DHT22;15177;50.844;4.412;2022-10-14T17:31:11;16.30;99.90
27797;DHT22;15177;50.844;4.412;2022-10-14T17:33:38;16.30;99.90
27797;DHT22;15177;50.844;4.412;2022-10-14T17:36:05;16.20;99.90
27797;DHT22;15177;50.844;4.412;2022-10-14T17:38:33;16.20;99.90
27797;DHT22;15177;50.844;4.412;2022-10-14T17:41:05;16.10;99.90
27797;DHT22;15177;50.844;4.412;2022-10-14T17:43:32;16.10;99.90
27797;DHT22;15177;50.844;4.412;2022-10-14T17:46:05;16.10;99.90
27797;DHT22;15177;50.844;4.412;2022-10-14T17:48:32;16.00;99.90
27797;DHT22;15177;50.844;4.412;2022-10-14T17:50:59;16.10;99.90
27797;DHT22;15177;50.844;4.412;2022-10-14T17:53:24;16.20;99.90
27797;DHT22;15177;50.844;4.412;2022-10-14T17:55:50;16.10;99.90
27797;DHT22;15177;50.844;4.412;2022-10-14T17:58:16;16.20;99.90
27797;DHT22;15177;50.844;4.412;2022-10-14T18:00:42;16.20;99.90
27797;DHT22;15177;50.844;4.412;2022-10-14T18:03:08;16.10;99.90
27797;DHT22;15177;50.844;4.412;2022-10-14T18:05:35;16.20;99.90
27797;DHT22;15177;50.844;4.412;2022-10-14T18:08:03;16.30;99.90
27797;DHT22;15177;50.844;4.412;2022-10-14T18:10:30;16.30;99.90
27797;DHT22;15177;50.844;4.412;2022-10-14T18:12:56;16.40;99.90